Time;durP1;ratioP1;P1;durP2;ratioP2;P2;SDS_P1;SDS_P2;PMS_P1;PMS_P2;Temp;Humidity;BMP_temperature;BMP_pressure;BME280_temperature;BME280_humidity;BME280_pressure;Samples;Min_cycle;Max_cycle;Signal;HPM_P1;HPM_P2
2022/12/21 00:01:45;;;;;;;17.37;14.20;;;7.30;86.50;;;;;;10909955;32;20019;-74
2022/12/21 00:07:47;;;;;;;16.98;13.82;;;7.20;86.50;;;;;;10896247;32;20035;-74
2022/12/21 00:13:52;;;;;;;20.50;15.93;;;7.10;86.60;;;;;;10896153;32;20023;-74
2022/12/21 00:19:54;;;;;;;18.58;14.52;;;7.10;86.80;;;;;;10909250;32;20396;-73
2022/12/21 00:25:57;;;;;;;17.92;15.00;;;7.10;86.70;;;;;;10483747;27;11886162;-73
2022/12/21 00:32:23;;;;;;;17.73;14.77;;;7.20;86.80;;;;;;10830954;32;20432;-74
2022/12/21 00:38:25;;;;;;;23.92;17.55;;;7.30;86.60;;;;;;10830676;32;20028;-74
2022/12/21 00:44:27;;;;;;;27.20;22.40;;;7.10;86.50;;;;;;10830319;32;20493;-73
2022/12/21 00:50:31;;;;;;;30.83;26.00;;;6.80;86.20;;;;;;10857539;32;20413;-74
2022/12/21 00:56:33;;;;;;;30.40;23.12;;;6.70;86.50;;;;;;10882139;32;20035;-73
2022/12/21 01:02:36;;;;;;;42.25;30.15;;;6.60;86.80;;;;;;10870577;32;20311;-74
2022/12/21 01:08:38;;;;;;;24.95;19.95;;;7.00;86.80;;;;;;10870310;32;20020;-74
2022/12/21 01:14:40;;;;;;;24.48;18.73;;;7.10;86.20;;;;;;10870033;32;20402;-74
2022/12/21 01:20:48;;;;;;;23.73;17.30;;;6.80;86.10;;;;;;10869803;32;20346;-73
2022/12/21 01:26:52;;;;;;;22.73;18.62;;;6.60;86.50;;;;;;10869577;32;20007;-74
2022/12/21 01:32:54;;;;;;;19.98;17.35;;;6.50;86.60;;;;;;10868895;32;20322;-73
2022/12/21 01:38:56;;;;;;;19.98;16.55;;;6.40;86.70;;;;;;10880823;32;20046;-74
2022/12/21 01:45:01;;;;;;;27.20;21.98;;;6.50;86.90;;;;;;10865058;32;20038;-74
2022/12/21 01:51:05;;;;;;;29.48;23.67;;;6.80;86.70;;;;;;10868763;32;20016;-73
2022/12/21 01:57:10;;;;;;;31.83;24.87;;;7.10;86.20;;;;;;10868494;32;20032;-73
2022/12/21 02:03:18;;;;;;;33.78;25.60;;;7.20;86.00;;;;;;10868434;32;20436;-73
2022/12/21 02:09:22;;;;;;;33.63;27.50;;;7.30;85.70;;;;;;10868198;32;20008;-73
2022/12/21 02:15:41;;;;;;;26.40;21.25;;;7.30;85.60;;;;;;10868073;32;20110;-73
2022/12/21 02:21:59;;;;;;;21.55;18.52;;;7.20;85.40;;;;;;10867730;32;20272;-74
2022/12/21 02:28:04;;;;;;;29.15;23.05;;;7.20;85.60;;;;;;10867519;32;20027;-74
2022/12/21 02:34:24;;;;;;;20.95;17.00;;;7.20;85.70;;;;;;10867377;32;20027;-74
2022/12/21 02:40:34;;;;;;;29.90;24.58;;;7.20;85.40;;;;;;10866633;32;20020;-74
2022/12/21 02:46:46;;;;;;;29.27;21.08;;;7.20;85.50;;;;;;10867129;32;20038;-74
2022/12/21 02:53:12;;;;;;;26.52;21.92;;;7.20;85.50;;;;;;10878536;32;20024;-74
2022/12/21 02:59:18;;;;;;;25.42;22.33;;;7.30;85.50;;;;;;10867563;32;20019;-74
2022/12/21 03:05:29;;;;;;;24.98;20.42;;;7.30;85.40;;;;;;10866710;32;20402;-74
2022/12/21 03:11:48;;;;;;;24.80;21.05;;;7.20;85.60;;;;;;10866648;32;20065;-73
2022/12/21 03:18:01;;;;;;;22.55;16.23;;;7.20;85.70;;;;;;10866530;32;20015;-76
2022/12/21 03:24:34;;;;;;;24.42;19.60;;;7.00;85.60;;;;;;10849662;32;20020;-76
2022/12/21 03:30:45;;;;;;;27.80;19.67;;;6.80;85.90;;;;;;10866444;32;20350;-77
2022/12/21 03:36:52;;;;;;;26.10;20.20;;;6.70;86.10;;;;;;10866262;32;20016;-77
2022/12/21 03:43:18;;;;;;;30.15;22.00;;;6.90;86.10;;;;;;10862095;32;20200;-76
2022/12/21 03:49:35;;;;;;;21.08;18.35;;;6.90;86.00;;;;;;10862698;32;20024;-76
2022/12/21 03:55:40;;;;;;;25.98;18.80;;;7.00;85.90;;;;;;10854271;32;20023;-76
2022/12/21 04:02:02;;;;;;;20.05;16.37;;;6.90;86.10;;;;;;10868564;32;20090;-76
2022/12/21 04:08:04;;;;;;;20.85;16.83;;;6.80;86.00;;;;;;10869450;32;20019;-76
2022/12/21 04:14:06;;;;;;;20.00;14.98;;;6.90;86.10;;;;;;10856174;32;20032;-76
2022/12/21 04:20:14;;;;;;;21.17;16.20;;;6.80;86.10;;;;;;10852371;32;20028;-76
2022/12/21 04:32:36;;;;;;;23.42;16.67;;;6.70;86.30;;;;;;10878819;32;20036;-77
2022/12/21 04:38:42;;;;;;;21.45;17.37;;;6.70;86.30;;;;;;10867757;32;20050;-76
2022/12/21 04:44:44;;;;;;;22.80;18.90;;;7.10;86.60;;;;;;10871211;32;20015;-77
2022/12/21 04:50:46;;;;;;;23.48;17.10;;;7.50;86.10;;;;;;10871025;32;20326;-76
2022/12/21 04:56:48;;;;;;;22.55;16.45;;;7.70;85.60;;;;;;10870817;32;20042;-77
2022/12/21 05:02:50;;;;;;;27.80;19.85;;;7.70;85.30;;;;;;10870427;32;20390;-76
2022/12/21 05:08:52;;;;;;;23.33;18.62;;;7.40;85.70;;;;;;10869770;32;20051;-77
2022/12/21 05:14:54;;;;;;;21.23;17.37;;;7.70;85.90;;;;;;10870212;32;20032;-77
2022/12/21 05:20:56;;;;;;;24.92;16.20;;;7.90;85.40;;;;;;10877075;32;20027;-77
2022/12/21 05:26:58;;;;;;;26.48;19.35;;;7.80;85.50;;;;;;10869691;32;20391;-77
2022/12/21 05:33:00;;;;;;;25.02;21.77;;;7.80;85.50;;;;;;10869394;32;20020;-76
2022/12/21 05:39:02;;;;;;;28.83;22.40;;;8.10;85.40;;;;;;10869228;32;20085;-77
2022/12/21 05:45:05;;;;;;;23.60;19.77;;;8.30;85.40;;;;;;10869122;32;20019;-77
2022/12/21 05:51:10;;;;;;;26.48;20.35;;;8.50;85.20;;;;;;10868883;32;20012;-77
2022/12/21 05:57:12;;;;;;;33.35;24.95;;;8.50;84.80;;;;;;10876043;32;20058;-77
2022/12/21 06:03:14;;;;;;;22.67;18.65;;;8.50;84.90;;;;;;10867534;32;20334;-77
2022/12/21 06:09:17;;;;;;;28.50;25.42;;;8.60;84.50;;;;;;10868166;32;20382;-77
2022/12/21 06:15:19;;;;;;;29.73;23.30;;;8.70;84.60;;;;;;10867716;32;20047;-77
2022/12/21 06:21:21;;;;;;;22.62;19.35;;;8.90;84.40;;;;;;10867093;32;20046;-77
2022/12/21 06:27:23;;;;;;;28.10;21.73;;;8.90;84.00;;;;;;10867651;32;20016;-77
2022/12/21 06:33:27;;;;;;;27.10;20.52;;;8.70;83.90;;;;;;10867280;32;20038;-77
2022/12/21 06:39:29;;;;;;;27.00;18.90;;;8.60;84.10;;;;;;10863173;32;20051;-77
2022/12/21 06:45:31;;;;;;;29.02;18.05;;;8.60;84.10;;;;;;10866909;32;20012;-77
2022/12/21 06:51:33;;;;;;;35.88;27.42;;;8.50;84.20;;;;;;10866523;32;20042;-77
2022/12/21 06:57:35;;;;;;;39.00;28.87;;;8.70;84.10;;;;;;10866748;32;20042;-77
2022/12/21 07:03:38;;;;;;;42.70;26.67;;;8.60;84.00;;;;;;10863043;32;20038;-77
2022/12/21 07:09:41;;;;;;;26.50;20.45;;;8.80;84.20;;;;;;10877522;32;20398;-77
2022/12/21 07:15:45;;;;;;;27.55;19.83;;;8.90;84.00;;;;;;10865843;32;20023;-76
2022/12/21 07:21:46;;;;;;;37.35;25.30;;;9.10;83.70;;;;;;10865848;32;20016;-76
2022/12/21 07:27:48;;;;;;;25.33;18.80;;;8.90;83.40;;;;;;10867941;32;20034;-76
2022/12/21 07:33:51;;;;;;;31.15;21.02;;;8.90;83.80;;;;;;10870072;32;20051;-76
2022/12/21 07:39:53;;;;;;;22.98;18.90;;;9.20;84.30;;;;;;10873511;32;20062;-76
2022/12/21 07:45:54;;;;;;;34.42;26.95;;;9.20;83.80;;;;;;10873270;32;20034;-77
2022/12/21 07:51:56;;;;;;;29.33;21.27;;;9.20;83.50;;;;;;10884728;32;20424;-76
2022/12/21 07:57:58;;;;;;;31.48;22.85;;;9.20;83.00;;;;;;10869285;32;20398;-76
2022/12/21 08:04:00;;;;;;;30.92;22.85;;;8.80;83.40;;;;;;10872743;32;20024;-76
2022/12/21 08:10:02;;;;;;;29.17;19.87;;;8.60;84.10;;;;;;10881979;32;20055;-74
2022/12/21 08:16:05;;;;;;;26.77;19.02;;;8.90;84.10;;;;;;10872368;32;20024;-74
2022/12/21 08:22:09;;;;;;;21.92;16.87;;;8.70;83.60;;;;;;10907909;27;20345;-74
2022/12/21 08:28:12;;;;;;;25.48;18.45;;;8.30;84.00;;;;;;10946984;32;20050;-76
2022/12/21 08:34:14;;;;;;;21.98;17.87;;;7.90;84.80;;;;;;10942148;32;20022;-77
2022/12/21 08:40:16;;;;;;;22.58;15.90;;;8.10;85.10;;;;;;10944918;32;20027;-76
2022/12/21 08:46:41;;;;;;;22.62;16.95;;;8.10;85.00;;;;;;10932832;32;20397;-76
2022/12/21 08:52:43;;;;;;;28.73;18.67;;;8.00;85.10;;;;;;10941993;32;20046;-76
2022/12/21 08:58:45;;;;;;;22.55;17.45;;;8.10;85.40;;;;;;10932235;32;20393;-76
2022/12/21 09:04:47;;;;;;;24.70;18.80;;;8.10;84.90;;;;;;10946023;32;20034;-76
2022/12/21 09:10:49;;;;;;;21.00;17.25;;;8.10;85.40;;;;;;10945608;32;20042;-76
2022/12/21 09:16:51;;;;;;;20.10;15.85;;;8.20;85.20;;;;;;10945153;32;20019;-76
2022/12/21 09:22:53;;;;;;;19.27;15.00;;;8.00;85.30;;;;;;10944693;32;20050;-76
2022/12/21 09:28:55;;;;;;;23.45;17.73;;;8.00;85.50;;;;;;10944845;32;20045;-76
2022/12/21 09:34:57;;;;;;;19.10;14.87;;;7.90;85.80;;;;;;10942734;32;20064;-76
2022/12/21 09:41:29;;;;;;;18.67;15.15;;;7.90;85.70;;;;;;10943063;32;20022;-76
2022/12/21 09:48:00;;;;;;;15.98;12.85;;;7.70;85.70;;;;;;10944220;32;20389;-76
2022/12/21 09:54:04;;;;;;;24.60;19.12;;;7.60;85.80;;;;;;10942706;32;20062;-76
2022/12/21 10:00:18;;;;;;;28.02;20.70;;;7.40;85.90;;;;;;10927025;32;20415;-76
2022/12/21 10:06:23;;;;;;;22.40;14.27;;;7.50;86.10;;;;;;10943477;32;20019;-76
2022/12/21 10:12:57;;;;;;;27.45;17.65;;;7.60;86.30;;;;;;10943254;32;20015;-76
2022/12/21 10:19:07;;;;;;;21.83;16.80;;;7.60;86.30;;;;;;10927987;32;20405;-76
2022/12/21 10:25:20;;;;;;;;;;;7.90;86.30;;;;;;10941284;32;20347;-76
2022/12/21 10:31:30;;;;;;;26.45;21.27;;;8.00;85.90;;;;;;10942624;32;19926;-76
2022/12/21 10:37:32;;;;;;;27.17;20.55;;;8.00;86.10;;;;;;10928922;32;20026;-76
2022/12/21 10:43:39;;;;;;;27.70;22.80;;;8.20;86.50;;;;;;10928799;32;20003;-76
2022/12/21 10:49:48;;;;;;;19.77;15.77;;;8.70;86.50;;;;;;10924697;32;20019;-76
2022/12/21 10:56:00;;;;;;;31.35;21.10;;;8.90;86.10;;;;;;10941934;32;20424;-76
2022/12/21 11:02:05;;;;;;;21.37;17.52;;;8.90;86.10;;;;;;10941230;32;20357;-76
2022/12/21 11:08:13;;;;;;;15.73;11.85;;;8.80;85.90;;;;;;10923622;32;20310;-76
2022/12/21 11:14:17;;;;;;;24.60;20.87;;;8.50;86.30;;;;;;10941448;32;20022;-76
2022/12/21 11:20:20;;;;;;;26.52;19.65;;;8.80;86.90;;;;;;10941580;32;20309;-75
2022/12/21 11:26:27;;;;;;;25.50;18.80;;;9.20;86.40;;;;;;10941365;32;20033;-76
2022/12/21 11:32:30;;;;;;;31.62;25.15;;;9.50;86.00;;;;;;10924600;32;20054;-76
2022/12/21 11:38:38;;;;;;;25.25;19.90;;;9.50;85.90;;;;;;10937032;32;20019;-76
2022/12/21 11:44:39;;;;;;;25.50;18.05;;;9.50;85.80;;;;;;10927676;32;20034;-76
2022/12/21 11:51:16;;;;;;;28.70;21.70;;;9.20;86.00;;;;;;10940957;32;20011;-76
2022/12/21 11:58:09;;;;;;;26.77;18.10;;;9.00;86.40;;;;;;10940850;32;20066;-76
2022/12/21 12:04:23;;;;;;;24.85;18.87;;;8.80;86.70;;;;;;10861575;32;20011;-76
2022/12/21 12:10:32;;;;;;;26.25;19.75;;;9.10;87.00;;;;;;10860782;32;20020;-76
2022/12/21 12:16:55;;;;;;;27.10;22.80;;;9.20;86.50;;;;;;10856509;32;20382;-76
2022/12/21 12:23:19;;;;;;;30.42;22.60;;;9.10;86.70;;;;;;10868075;32;20055;-76
2022/12/21 12:30:02;;;;;;;22.62;17.75;;;8.90;86.80;;;;;;10869095;32;20023;-76
2022/12/21 12:36:34;;;;;;;20.52;16.02;;;8.90;86.80;;;;;;10909385;32;20023;-75
2022/12/21 12:42:53;;;;;;;24.73;17.77;;;8.90;86.90;;;;;;10828284;32;20024;-76
2022/12/21 12:49:03;;;;;;;31.30;23.70;;;9.20;87.50;;;;;;10831594;32;20035;-75
2022/12/21 12:55:08;;;;;;;21.20;15.10;;;9.50;86.80;;;;;;10829585;32;20021;-76
2022/12/21 13:01:25;;;;;;;22.73;17.00;;;9.20;86.70;;;;;;10829426;32;20322;-76
2022/12/21 13:08:04;;;;;;;20.70;15.85;;;8.90;87.10;;;;;;10825891;32;20046;-76
2022/12/21 13:14:24;;;;;;;25.27;16.98;;;8.80;87.30;;;;;;10834451;32;20039;-76
2022/12/21 13:20:28;;;;;;;20.25;14.68;;;8.80;87.70;;;;;;10946263;32;20049;-76
2022/12/21 13:26:53;;;;;;;30.02;23.30;;;8.70;87.50;;;;;;10944287;32;20320;-76
2022/12/21 13:32:59;;;;;;;31.58;24.17;;;8.70;87.60;;;;;;10941535;32;20027;-76
2022/12/21 13:39:22;;;;;;;22.58;16.80;;;9.00;87.60;;;;;;10940310;32;20416;-76
2022/12/21 13:45:39;;;;;;;25.30;19.50;;;9.10;87.10;;;;;;10944390;32;20015;-76
2022/12/21 13:51:48;;;;;;;29.23;21.67;;;8.80;87.10;;;;;;10944037;32;20393;-76
2022/12/21 13:58:08;;;;;;;30.17;22.57;;;8.70;87.60;;;;;;10939747;32;20101;-76
2022/12/21 14:04:36;;;;;;;23.60;17.08;;;9.10;87.70;;;;;;10943635;32;20015;-76
2022/12/21 14:11:05;;;;;;;24.80;18.75;;;9.50;87.00;;;;;;10929483;32;20050;-76
2022/12/21 14:17:41;;;;;;;31.85;25.02;;;9.50;87.10;;;;;;10937499;32;20030;-75
2022/12/21 14:23:48;;;;;;;23.08;17.27;;;9.70;86.90;;;;;;10851302;32;20470;-76
2022/12/21 14:29:50;;;;;;;18.80;16.27;;;9.60;86.60;;;;;;10863279;32;20422;-75
2022/12/21 14:36:11;;;;;;;34.45;25.08;;;9.30;86.70;;;;;;10851101;32;20087;-76
2022/12/21 14:42:53;;;;;;;19.60;14.82;;;9.20;87.20;;;;;;10862823;32;20487;-74
2022/12/21 14:49:26;;;;;;;22.67;16.33;;;9.50;87.10;;;;;;10862849;32;20386;-74
2022/12/21 14:55:41;;;;;;;22.33;18.10;;;9.30;87.20;;;;;;10862477;32;20424;-74
2022/12/21 15:01:55;;;;;;;28.67;21.12;;;9.40;87.20;;;;;;10938639;32;20055;-72
2022/12/21 15:08:05;;;;;;;17.08;13.52;;;9.40;86.90;;;;;;10941593;32;20400;-73
2022/12/21 15:14:23;;;;;;;21.25;16.25;;;9.50;87.00;;;;;;10937290;32;20031;-74
2022/12/21 15:20:44;;;;;;;38.30;28.98;;;9.60;87.00;;;;;;10941260;32;20019;-73
2022/12/21 15:27:14;;;;;;;30.95;24.60;;;9.70;86.80;;;;;;10941144;32;19999;-73
2022/12/21 15:33:27;;;;;;;25.85;18.50;;;9.80;86.50;;;;;;10941333;32;20019;-73
2022/12/21 15:39:39;;;;;;;28.77;22.58;;;10.00;86.30;;;;;;10940345;32;20041;-74
2022/12/21 15:46:03;;;;;;;27.85;22.23;;;9.90;86.20;;;;;;10927598;32;20402;-73
2022/12/21 15:52:33;;;;;;;28.15;21.48;;;9.90;86.50;;;;;;10946460;32;20011;-75
2022/12/21 15:58:34;;;;;;;28.02;21.70;;;10.00;86.50;;;;;;10948010;32;20344;-76
2022/12/21 16:04:45;;;;;;;35.38;27.20;;;9.90;86.30;;;;;;10934395;32;20015;-75
2022/12/21 16:10:50;;;;;;;35.58;25.48;;;9.90;86.10;;;;;;10926111;32;20039;-76
2022/12/21 16:17:18;;;;;;;36.22;26.30;;;9.90;85.90;;;;;;10938287;32;20022;-75
2022/12/21 16:23:32;;;;;;;31.05;22.25;;;9.90;85.80;;;;;;10779675;27;20387;-75
2022/12/21 16:29:39;;;;;;;39.63;30.48;;;9.90;85.70;;;;;;10757254;33;20086;-75
2022/12/21 16:35:41;;;;;;;35.72;25.70;;;9.90;85.80;;;;;;10753993;33;20055;-75
2022/12/21 16:41:43;;;;;;;37.00;27.73;;;9.80;85.70;;;;;;10758106;33;20029;-75
2022/12/21 16:48:05;;;;;;;45.38;29.85;;;9.80;85.80;;;;;;10754139;33;20024;-75
2022/12/21 16:54:16;;;;;;;30.08;20.62;;;9.80;85.80;;;;;;10756328;33;20055;-75
2022/12/21 17:00:23;;;;;;;29.80;20.77;;;9.80;85.60;;;;;;10837932;32;20055;-75
2022/12/21 17:06:40;;;;;;;38.60;28.27;;;9.70;85.80;;;;;;10869630;32;20020;-73
2022/12/21 17:12:49;;;;;;;31.42;22.52;;;9.80;86.10;;;;;;10870264;32;20390;-73
2022/12/21 17:19:14;;;;;;;23.12;16.58;;;9.70;85.80;;;;;;10869514;32;20035;-73
2022/12/21 17:25:19;;;;;;;24.95;17.08;;;9.50;85.90;;;;;;10865928;32;20026;-73
2022/12/21 17:31:21;;;;;;;52.17;34.45;;;9.20;86.40;;;;;;10869582;32;20042;-73
2022/12/21 17:37:25;;;;;;;35.15;23.65;;;8.90;86.80;;;;;;10855981;32;20421;-75
2022/12/21 17:43:27;;;;;;;35.40;26.45;;;9.20;86.90;;;;;;10868426;32;20032;-75
2022/12/21 17:49:29;;;;;;;27.77;23.20;;;9.30;86.50;;;;;;10869079;32;20015;-75
2022/12/21 17:55:32;;;;;;;30.42;23.23;;;9.50;86.40;;;;;;10867063;32;20050;-76
2022/12/21 18:01:35;;;;;;;39.60;29.90;;;9.70;86.10;;;;;;10854699;32;20484;-76
2022/12/21 18:07:38;;;;;;;41.85;29.85;;;9.80;85.80;;;;;;10867337;32;20024;-76
2022/12/21 18:13:40;;;;;;;41.83;32.67;;;10.00;85.40;;;;;;10865882;32;20023;-75
2022/12/21 18:19:43;;;;;;;47.17;34.30;;;10.10;85.40;;;;;;10867139;32;20020;-75
2022/12/21 18:25:47;;;;;;;44.80;32.30;;;10.10;85.20;;;;;;10867645;32;20020;-75
2022/12/21 18:31:50;;;;;;;31.55;25.52;;;10.20;84.90;;;;;;10863645;32;20024;-75
2022/12/21 18:38:00;;;;;;;33.80;24.83;;;10.20;84.40;;;;;;10867278;32;20051;-75
2022/12/21 18:44:07;;;;;;;47.03;35.37;;;9.90;85.00;;;;;;10866441;32;20019;-75
2022/12/21 18:50:15;;;;;;;45.92;31.90;;;10.10;85.20;;;;;;10864197;32;20042;-75
2022/12/21 18:56:18;;;;;;;38.33;31.47;;;10.20;84.80;;;;;;10867167;32;20370;-76
2022/12/21 19:02:30;;;;;;;30.55;24.50;;;10.30;84.50;;;;;;10864928;32;20264;-75
2022/12/21 19:08:46;;;;;;;29.55;23.17;;;10.20;84.40;;;;;;10867000;32;20020;-75
2022/12/21 19:14:48;;;;;;;26.52;21.17;;;9.70;84.90;;;;;;10866686;32;20032;-75
2022/12/21 19:20:51;;;;;;;26.52;21.25;;;9.60;85.50;;;;;;10852290;32;20033;-75
2022/12/21 19:27:21;;;;;;;32.15;25.27;;;9.40;85.80;;;;;;10871546;32;20027;-76
2022/12/21 19:33:23;;;;;;;18.92;16.75;;;9.10;85.90;;;;;;10874025;32;20023;-76
2022/12/21 19:39:25;;;;;;;31.40;23.00;;;8.80;86.20;;;;;;10873741;32;20046;-76
2022/12/21 19:45:40;;;;;;;32.85;25.70;;;8.70;86.40;;;;;;10872731;32;20062;-76
2022/12/21 19:51:42;;;;;;;31.17;23.38;;;8.70;86.70;;;;;;10873094;32;20016;-76
2022/12/21 19:57:51;;;;;;;50.40;36.97;;;8.90;86.70;;;;;;10855494;32;20058;-76
2022/12/21 20:03:53;;;;;;;35.80;27.67;;;9.20;86.30;;;;;;10872946;32;20038;-76
2022/12/21 20:09:55;;;;;;;29.20;20.45;;;9.30;86.10;;;;;;10871531;32;20046;-74
2022/12/21 20:15:57;;;;;;;30.40;25.75;;;9.50;85.90;;;;;;10871156;32;20066;-74
2022/12/21 20:21:59;;;;;;;36.83;28.17;;;9.60;86.00;;;;;;10869086;32;20055;-74
2022/12/21 20:28:01;;;;;;;30.20;23.23;;;9.70;85.90;;;;;;10870649;32;20201;-73
2022/12/21 20:34:04;;;;;;;29.42;22.37;;;9.70;85.70;;;;;;10871841;32;20350;-74
2022/12/21 20:40:16;;;;;;;23.73;18.20;;;9.50;85.90;;;;;;10871698;32;20031;-74
2022/12/21 20:46:29;;;;;;;26.08;20.40;;;9.20;86.10;;;;;;10868390;32;20055;-74
2022/12/21 20:52:32;;;;;;;30.90;22.77;;;9.00;86.50;;;;;;10871372;32;20047;-74
2022/12/21 20:58:34;;;;;;;25.90;19.00;;;8.90;86.70;;;;;;10866893;32;20059;-74
2022/12/21 21:04:38;;;;;;;21.85;17.17;;;8.90;86.90;;;;;;10870645;32;20034;-73
2022/12/21 21:10:40;;;;;;;23.85;19.50;;;8.90;86.70;;;;;;10870591;32;20028;-74
2022/12/21 21:16:43;;;;;;;23.48;19.12;;;8.80;86.80;;;;;;10870279;32;20028;-74
2022/12/21 21:23:00;;;;;;;26.45;18.67;;;8.80;86.80;;;;;;10870085;32;20050;-74
2022/12/21 21:29:17;;;;;;;29.40;19.10;;;8.70;86.80;;;;;;10869906;32;20038;-74
2022/12/21 21:35:21;;;;;;;30.50;21.23;;;8.70;86.90;;;;;;10869572;32;20019;-73
2022/12/21 21:41:33;;;;;;;27.52;21.45;;;8.70;87.10;;;;;;10869555;32;20024;-73
2022/12/21 21:47:35;;;;;;;18.15;14.23;;;8.70;86.90;;;;;;10867197;32;20074;-74
2022/12/21 21:53:39;;;;;;;27.70;19.73;;;8.60;86.90;;;;;;10868073;32;20023;-73
2022/12/21 21:59:41;;;;;;;16.65;14.52;;;8.50;87.10;;;;;;10868938;32;20032;-73
2022/12/21 22:05:43;;;;;;;24.52;18.60;;;8.40;87.10;;;;;;10855356;32;20020;-74
2022/12/21 22:11:49;;;;;;;25.20;19.55;;;8.60;87.20;;;;;;10868439;32;20047;-74
2022/12/21 22:17:51;;;;;;;28.90;22.60;;;8.50;87.00;;;;;;10868061;32;20028;-74
2022/12/21 22:43:08;;;;;;;23.52;17.65;;;8.60;87.20;;;;;;10867485;32;20046;-76
2022/12/21 22:49:10;;;;;;;22.58;17.00;;;8.50;87.20;;;;;;10867286;32;20027;-76
2022/12/21 22:55:25;;;;;;;20.88;17.83;;;8.50;87.30;;;;;;10853623;32;20070;-76
2022/12/21 23:01:32;;;;;;;18.40;15.13;;;8.50;87.20;;;;;;10867711;32;20023;-76
2022/12/21 23:07:34;;;;;;;23.08;17.73;;;8.50;87.30;;;;;;10866079;32;20051;-76
2022/12/21 23:19:56;;;;;;;23.05;16.02;;;8.50;87.30;;;;;;10867290;32;20024;-76
2022/12/21 23:45:04;;;;;;;27.90;18.87;;;8.80;87.20;;;;;;10865078;32;20035;-74
